Time;durP1;ratioP1;P1;durP2;ratioP2;P2;SDS_P1;SDS_P2;PMS_P1;PMS_P2;Temp;Humidity;BMP_temperature;BMP_pressure;BME280_temperature;BME280_humidity;BME280_pressure;Samples;Min_cycle;Max_cycle;Signal;HPM_P1;HPM_P2
2020/12/11 00:02:30;;;;;;;31.57;12.00;;;;;;;13.05;68.86;154545.52;1716831;83;21241;-63
2020/12/11 00:05:04;;;;;;;26.20;12.20;;;;;;;13.19;68.14;154581.03;1716179;83;21329;-62
2020/12/11 00:07:39;;;;;;;24.32;11.15;;;;;;;12.94;67.63;154515.33;1715634;83;21253;-63
2020/12/11 00:10:13;;;;;;;25.82;12.18;;;;;;;12.99;67.66;154529.78;1715696;83;21272;-63
2020/12/11 00:12:50;;;;;;;26.42;11.78;;;;;;;13.06;67.30;154546.86;1718861;81;21260;-63
2020/12/11 00:15:19;;;;;;;23.40;11.38;;;;;;;13.02;67.13;154537.63;1715063;82;21234;-63
2020/12/11 00:17:52;;;;;;;23.62;11.30;;;;;;;13.04;66.79;154542.89;1715251;83;21466;-63
2020/12/11 00:20:25;;;;;;;18.98;10.05;;;;;;;13.09;66.76;154556.05;1718469;83;21241;-63
2020/12/11 00:22:57;;;;;;;25.32;10.58;;;;;;;13.12;66.41;154562.59;1714457;83;21237;-63
2020/12/11 00:25:33;;;;;;;25.40;11.12;;;;;;;13.14;66.50;154567.86;1717339;82;22606;-63
2020/12/11 00:28:05;;;;;;;24.60;10.58;;;;;;;13.10;66.28;154557.34;1710106;83;22137;-63
2020/12/11 00:30:38;;;;;;;22.48;11.25;;;;;;;13.16;66.02;154573.13;1714699;82;21305;-63
2020/12/11 00:33:10;;;;;;;18.85;10.43;;;;;;;13.17;65.73;154575.75;1716255;81;21256;-63
2020/12/11 00:35:43;;;;;;;20.25;10.10;;;;;;;13.19;65.62;154581.03;1715620;83;21253;-63
2020/12/11 00:38:15;;;;;;;18.27;9.85;;;;;;;13.17;65.75;154577.05;1715618;83;21499;-63
2020/12/11 00:40:47;;;;;;;21.75;10.50;;;;;;;13.18;65.70;154578.39;1714590;82;21483;-63
2020/12/11 00:43:20;;;;;;;24.27;12.20;;;;;;;13.18;65.75;154579.69;1715172;83;21229;-63
2020/12/11 00:45:52;;;;;;;22.80;11.05;;;;;;;13.11;65.53;154559.97;1716097;83;21229;-63
2020/12/11 00:48:25;;;;;;;21.60;10.45;;;;;;;13.10;65.66;154557.34;1714539;83;21296;-63
2020/12/11 00:50:57;;;;;;;24.67;9.95;;;;;;;13.16;65.58;154574.42;1718380;82;21297;-63
2020/12/11 00:53:30;;;;;;;23.30;10.10;;;;;;;13.19;65.44;154582.31;1715602;83;22058;-63
2020/12/11 00:56:03;;;;;;;22.17;9.78;;;;;;;12.98;67.02;154527.16;1716402;82;21238;-63
2020/12/11 00:58:35;;;;;;;20.30;9.75;;;;;;;12.96;66.53;154520.59;1715258;83;21233;-63
2020/12/11 01:01:08;;;;;;;25.75;11.55;;;;;;;12.89;67.16;154502.17;1715275;83;21253;-63
2020/12/11 01:03:40;;;;;;;17.75;9.78;;;;;;;12.89;66.99;154502.17;1715617;83;21261;-62
2020/12/11 01:06:13;;;;;;;20.12;9.43;;;;;;;12.90;66.91;154504.81;1716069;83;21527;-63
2020/12/11 01:08:45;;;;;;;23.15;9.73;;;;;;;12.92;67.28;154510.06;1717322;81;21248;-63
2020/12/11 01:11:17;;;;;;;22.52;9.45;;;;;;;12.97;66.81;154524.52;1717542;83;22113;-63
2020/12/11 01:13:50;;;;;;;23.45;10.18;;;;;;;12.97;66.45;154523.17;1715624;83;21284;-63
2020/12/11 01:16:22;;;;;;;22.27;9.85;;;;;;;12.91;66.08;154507.44;1715941;83;21301;-63
2020/12/11 01:18:56;;;;;;;22.87;9.75;;;;;;;12.90;66.41;154504.81;1715597;83;21230;-63
2020/12/11 01:21:29;;;;;;;20.43;9.50;;;;;;;12.98;66.69;154527.16;1715698;82;21304;-63
2020/12/11 01:24:01;;;;;;;19.77;9.70;;;;;;;12.98;66.18;154525.81;1717003;82;21300;-63
2020/12/11 01:26:34;;;;;;;18.67;9.78;;;;;;;13.35;65.48;154624.38;1716916;83;21320;-63
2020/12/11 01:29:06;;;;;;;22.93;9.75;;;;;;;13.39;64.98;154634.86;1689130;83;21244;-63
2020/12/11 01:31:38;;;;;;;23.32;9.78;;;;;;;13.46;64.51;154651.95;1716533;83;22065;-63
2020/12/11 01:34:11;;;;;;;24.47;9.70;;;;;;;13.43;64.34;154644.05;1715395;83;21551;-63
2020/12/11 01:36:44;;;;;;;23.35;10.60;;;;;;;13.41;64.51;154640.13;1716615;83;21244;-63
2020/12/11 01:39:17;;;;;;;20.95;8.88;;;;;;;13.45;64.54;154650.66;1714470;83;21277;-63
2020/12/11 01:41:51;;;;;;;21.85;10.13;;;;;;;13.21;64.67;154586.23;1717915;83;21330;-63
2020/12/11 01:44:23;;;;;;;22.15;10.38;;;;;;;13.14;65.31;154567.86;1717386;83;21256;-63
2020/12/11 01:46:58;;;;;;;17.42;8.65;;;;;;;13.16;65.12;154573.13;1716383;83;21252;-63
2020/12/11 01:49:31;;;;;;;18.75;9.20;;;;;;;13.19;65.19;154582.31;1711763;83;21249;-62
2020/12/11 01:52:03;;;;;;;20.25;9.05;;;;;;;13.28;65.07;154604.67;1716094;83;22037;-63
2020/12/11 01:54:36;;;;;;;19.05;9.08;;;;;;;13.36;64.48;154625.67;1715583;83;22145;-63
2020/12/11 01:57:27;;;;;;;20.32;9.48;;;;;;;13.28;64.20;154605.95;1717675;82;22066;-63
2020/12/11 02:00:00;;;;;;;17.25;8.68;;;;;;;13.20;64.44;154583.61;1716858;83;21233;-63
2020/12/11 02:02:39;;;;;;;20.25;9.40;;;;;;;13.07;64.35;154550.78;1712122;82;21241;-63
2020/12/11 02:05:12;;;;;;;19.55;8.78;;;;;;;12.95;65.20;154519.25;1715975;83;21252;-63
2020/12/11 02:07:44;;;;;;;20.25;8.58;;;;;;;12.87;65.12;154498.20;1717004;83;21301;-63
2020/12/11 02:10:17;;;;;;;19.95;8.90;;;;;;;12.83;65.35;154487.67;1715561;83;21245;-63
2020/12/11 02:12:49;;;;;;;20.82;9.10;;;;;;;12.82;65.40;154485.05;1715523;83;21280;-63
2020/12/11 02:15:22;;;;;;;20.60;7.83;;;;;;;12.86;65.12;154495.56;1715566;81;21256;-63
2020/12/11 02:17:55;;;;;;;19.70;8.55;;;;;;;12.88;65.00;154499.48;1715137;82;21252;-63
2020/12/11 02:20:27;;;;;;;18.50;9.13;;;;;;;12.86;64.78;154495.56;1715574;83;21351;-63
2020/12/11 02:23:00;;;;;;;21.25;9.50;;;;;;;12.72;65.29;154457.48;1716433;83;21922;-63
2020/12/11 02:25:32;;;;;;;16.23;7.92;;;;;;;12.70;65.15;154453.52;1716641;82;21305;-64
2020/12/11 02:28:05;;;;;;;23.32;9.23;;;;;;;12.70;64.85;154453.52;1718592;83;21259;-63
2020/12/11 02:30:37;;;;;;;21.48;9.48;;;;;;;12.73;64.87;154460.13;1714648;83;21308;-63
2020/12/11 02:33:10;;;;;;;23.90;8.48;;;;;;;12.85;64.67;154491.59;1715361;83;21261;-63
2020/12/11 02:35:42;;;;;;;15.38;8.23;;;;;;;12.81;64.37;154481.13;1716725;82;21649;-63
2020/12/11 02:38:15;;;;;;;16.25;8.18;;;;;;;12.77;64.13;154470.59;1716128;81;21238;-63
2020/12/11 02:40:53;;;;;;;20.57;8.80;;;;;;;12.66;64.65;154443.05;1716702;83;21255;-63
2020/12/11 02:43:26;;;;;;;20.65;9.43;;;;;;;12.66;64.31;154443.05;1715890;83;21241;-63
2020/12/11 02:45:58;;;;;;;22.00;8.50;;;;;;;12.64;64.55;154436.44;1715134;83;21296;-62
2020/12/11 02:48:31;;;;;;;18.15;8.65;;;;;;;12.58;64.36;154420.70;1715600;81;21304;-63
2020/12/11 02:51:03;;;;;;;15.98;8.33;;;;;;;12.64;64.19;154437.78;1715604;83;21443;-63
2020/12/11 02:53:35;;;;;;;20.37;8.30;;;;;;;12.44;64.20;154383.94;1715541;83;21264;-63
2020/12/11 02:56:07;;;;;;;20.50;9.33;;;;;;;12.56;64.50;154414.16;1714499;83;21245;-63
2020/12/11 02:58:40;;;;;;;21.90;8.58;;;;;;;12.57;64.30;154416.73;1715525;83;21256;-63
2020/12/11 03:01:13;;;;;;;20.27;8.33;;;;;;;12.61;64.31;154428.59;1717128;83;21284;-63
2020/12/11 03:03:45;;;;;;;23.87;9.35;;;;;;;12.51;64.39;154402.30;1716789;83;21229;-63
2020/12/11 03:06:18;;;;;;;21.07;8.80;;;;;;;12.56;65.15;154415.44;1715671;83;21253;-63
2020/12/11 03:08:50;;;;;;;16.75;8.80;;;;;;;12.57;64.84;154418.08;1717519;83;22009;-63
2020/12/11 03:11:23;;;;;;;22.07;8.50;;;;;;;12.54;64.35;154410.19;1715571;83;21261;-63
2020/12/11 03:13:56;;;;;;;17.85;8.23;;;;;;;12.53;64.22;154407.56;1715628;83;22109;-63
2020/12/11 03:16:28;;;;;;;17.77;9.55;;;;;;;12.63;64.22;154433.81;1717049;83;21233;-63
2020/12/11 03:19:00;;;;;;;21.07;8.65;;;;;;;12.70;63.86;154453.52;1715990;83;21296;-63
2020/12/11 03:21:32;;;;;;;19.40;9.23;;;;;;;12.69;63.74;154449.59;1715190;83;21233;-63
2020/12/11 03:24:05;;;;;;;19.35;8.78;;;;;;;12.71;63.32;154454.86;1711611;83;21238;-63
2020/12/11 03:26:37;;;;;;;18.15;7.90;;;;;;;12.59;63.45;154424.63;1717251;83;21254;-62
2020/12/11 03:29:10;;;;;;;21.33;9.23;;;;;;;12.55;63.75;154411.53;1716654;83;21284;-63
2020/12/11 03:31:42;;;;;;;17.52;7.90;;;;;;;12.62;63.49;154431.19;1717879;83;21261;-64
2020/12/11 03:34:15;;;;;;;16.48;8.53;;;;;;;12.62;63.79;154432.53;1716997;83;21267;-64
2020/12/11 03:36:49;;;;;;;16.27;8.20;;;;;;;12.58;63.37;154419.37;1715650;83;21300;-64
2020/12/11 03:39:22;;;;;;;19.75;8.25;;;;;;;12.56;63.63;154415.44;1716066;83;21265;-64
2020/12/11 03:41:54;;;;;;;21.65;8.30;;;;;;;12.72;63.29;154457.48;1716037;83;21283;-64
2020/12/11 03:44:27;;;;;;;16.77;7.55;;;;;;;12.76;63.13;154467.97;1715520;83;22019;-63
2020/12/11 03:46:59;;;;;;;17.90;7.90;;;;;;;12.69;64.98;154449.59;1716442;83;22085;-64
2020/12/11 03:49:31;;;;;;;14.53;7.37;;;;;;;12.74;63.82;154462.70;1714432;82;21289;-63
2020/12/11 03:52:03;;;;;;;19.40;8.78;;;;;;;12.72;63.04;154457.48;1718030;83;21256;-64
2020/12/11 03:54:35;;;;;;;20.95;8.60;;;;;;;12.58;62.92;154420.70;1717056;83;21293;-64
2020/12/11 03:57:07;;;;;;;22.35;9.80;;;;;;;12.50;63.05;154399.67;1719918;82;21308;-64
2020/12/11 03:59:40;;;;;;;20.08;9.15;;;;;;;12.58;62.72;154419.37;1715580;83;21232;-64
2020/12/11 04:02:13;;;;;;;21.62;8.60;;;;;;;12.58;62.20;154419.37;1717613;83;21252;-64
2020/12/11 04:04:46;;;;;;;20.05;8.80;;;;;;;12.59;62.26;154423.34;1715608;83;21245;-64
2020/12/11 04:07:18;;;;;;;16.87;8.45;;;;;;;12.43;62.48;154380.02;1716424;83;21314;-64
2020/12/11 04:09:51;;;;;;;17.15;7.37;;;;;;;12.57;62.02;154416.73;1717239;83;21255;-64
2020/12/11 04:12:23;;;;;;;17.35;7.80;;;;;;;12.59;62.10;154423.34;1712329;83;21256;-64
2020/12/11 04:14:55;;;;;;;16.93;8.25;;;;;;;12.54;62.18;154410.19;1716075;81;21312;-63
2020/12/11 04:17:28;;;;;;;19.60;8.28;;;;;;;12.57;62.06;154416.73;1714418;82;21296;-63
2020/12/11 04:20:00;;;;;;;18.23;7.85;;;;;;;12.48;61.85;154393.11;1716404;82;21298;-63
2020/12/11 04:22:33;;;;;;;21.37;7.72;;;;;;;12.76;61.45;154469.31;1715209;83;22093;-63
2020/12/11 04:25:05;;;;;;;18.32;8.15;;;;;;;12.58;61.71;154420.70;1717281;83;21249;-63
2020/12/11 04:27:37;;;;;;;16.82;6.85;;;;;;;12.53;61.82;154407.56;1716832;83;21221;-63
2020/12/11 04:30:10;;;;;;;19.42;7.70;;;;;;;12.52;61.40;154403.64;1718744;82;21248;-64
2020/12/11 04:32:42;;;;;;;19.85;8.70;;;;;;;12.48;61.32;154394.45;1715832;83;21420;-64
2020/12/11 04:35:14;;;;;;;18.02;8.05;;;;;;;12.43;61.46;154381.31;1715162;83;21245;-64
2020/12/11 04:37:48;;;;;;;19.92;8.38;;;;;;;12.43;61.47;154381.31;1715123;82;21305;-64
2020/12/11 04:40:20;;;;;;;17.32;8.05;;;;;;;12.51;61.50;154401.00;1664634;82;21529;-64
2020/12/11 04:42:52;;;;;;;14.85;7.20;;;;;;;12.49;61.52;154397.08;1715617;83;21260;-63
2020/12/11 04:45:25;;;;;;;15.93;8.40;;;;;;;12.49;61.37;154397.08;1716882;83;21491;-63
2020/12/11 04:47:59;;;;;;;18.02;8.15;;;;;;;12.40;61.39;154373.41;1715633;82;21288;-64
2020/12/11 04:50:31;;;;;;;17.85;9.10;;;;;;;12.37;60.93;154365.58;1715628;83;21579;-64
2020/12/11 04:53:04;;;;;;;15.70;7.95;;;;;;;12.52;60.59;154404.92;1717637;83;21237;-63
2020/12/11 04:55:36;;;;;;;17.15;8.33;;;;;;;12.26;60.48;154335.34;1714387;83;22094;-64
2020/12/11 04:58:09;;;;;;;19.02;8.23;;;;;;;12.25;60.78;154332.72;1711367;83;21570;-64
2020/12/11 05:00:42;;;;;;;17.05;8.13;;;;;;;12.14;60.97;154303.84;1715965;83;22100;-63
2020/12/11 05:03:15;;;;;;;19.17;9.60;;;;;;;12.16;60.82;154309.11;1715597;83;21475;-64
2020/12/11 05:05:47;;;;;;;25.77;10.68;;;;;;;12.14;60.77;154303.84;1715974;83;21229;-64
2020/12/11 05:08:21;;;;;;;19.65;10.10;;;;;;;12.15;60.69;154306.47;1715187;82;21244;-64
2020/12/11 05:10:53;;;;;;;21.80;9.05;;;;;;;12.17;60.90;154311.73;1716300;83;22076;-64
2020/12/11 05:13:26;;;;;;;17.00;8.25;;;;;;;12.16;60.80;154310.39;1715431;82;21249;-64
2020/12/11 05:16:15;;;;;;;23.22;9.15;;;;;;;12.02;60.81;154273.69;1715851;83;21268;-64
2020/12/11 05:18:48;;;;;;;21.65;8.98;;;;;;;12.05;60.50;154280.23;1714374;83;21249;-64
2020/12/11 05:21:26;;;;;;;20.15;8.10;;;;;;;11.89;60.34;154238.22;1714383;82;22092;-64
2020/12/11 05:24:06;;;;;;;22.98;9.08;;;;;;;11.98;60.51;154261.83;1715575;82;22026;-64
2020/12/11 05:26:39;;;;;;;22.52;8.30;;;;;;;11.89;60.48;154238.22;1715557;81;21304;-67
2020/12/11 05:29:11;;;;;;;16.23;8.50;;;;;;;11.82;60.38;154221.16;1714418;83;21261;-64
2020/12/11 05:31:48;;;;;;;18.40;8.58;;;;;;;11.78;60.23;154209.34;1715563;83;21228;-66
2020/12/11 05:34:20;;;;;;;16.42;7.87;;;;;;;11.65;60.36;154173.94;1714959;83;21245;-66
2020/12/11 05:36:55;;;;;;;15.68;7.72;;;;;;;11.70;60.33;154189.66;1717381;82;21236;-66
2020/12/11 05:39:32;;;;;;;17.10;7.83;;;;;;;11.62;60.33;154166.06;1713046;83;22165;-69
2020/12/11 05:42:08;;;;;;;20.48;8.68;;;;;;;11.66;60.59;154177.84;1716709;83;21260;-66
2020/12/11 05:44:42;;;;;;;20.85;7.72;;;;;;;11.57;60.14;154152.97;1715185;83;21484;-68
2020/12/11 05:47:23;;;;;;;15.35;7.42;;;;;;;11.59;60.18;154158.17;1715557;83;21256;-65
2020/12/11 05:49:55;;;;;;;26.93;8.00;;;;;;;11.56;59.96;154150.34;1714373;83;21292;-64
2020/12/11 05:52:28;;;;;;;14.13;7.08;;;;;;;11.58;60.27;154155.53;1716330;83;21305;-65
2020/12/11 05:55:00;;;;;;;21.20;7.85;;;;;;;11.58;59.86;154155.53;1715590;83;21249;-65
2020/12/11 05:57:32;;;;;;;17.80;8.08;;;;;;;11.37;60.00;154100.41;1689635;83;21452;-65
2020/12/11 06:00:05;;;;;;;17.32;7.37;;;;;;;11.48;60.06;154129.25;1716818;83;21475;-65
2020/12/11 06:02:37;;;;;;;18.23;7.72;;;;;;;11.55;59.78;154149.00;1717173;83;21336;-65
2020/12/11 06:05:10;;;;;;;16.85;8.65;;;;;;;11.44;59.35;154118.80;1715639;83;21226;-65
2020/12/11 06:07:44;;;;;;;20.17;7.35;;;;;;;11.31;59.77;154084.69;1687770;83;21249;-65
2020/12/11 06:13:52;;;;;;;18.48;8.53;;;;;;;11.35;59.53;154095.14;1719361;82;21201;-64
2020/12/11 06:16:25;;;;;;;13.13;6.47;;;;;;;11.23;59.49;154063.66;1718405;83;21225;-64
2020/12/11 06:19:01;;;;;;;17.05;7.45;;;;;;;11.24;59.48;154067.63;1715639;83;21268;-64
2020/12/11 06:21:34;;;;;;;23.87;9.15;;;;;;;11.19;59.46;154054.50;1715561;83;21225;-65
2020/12/11 06:24:09;;;;;;;19.07;8.15;;;;;;;11.14;59.31;154040.06;1718342;83;21341;-64
2020/12/11 06:26:47;;;;;;;20.70;8.18;;;;;;;11.14;59.20;154041.41;1712022;83;21751;-64
2020/12/11 06:29:32;;;;;;;15.72;7.10;;;;;;;11.15;59.11;154044.03;1714974;83;21209;-64
2020/12/11 06:32:04;;;;;;;19.60;7.50;;;;;;;11.10;59.27;154029.61;1716797;83;21248;-64
2020/12/11 06:34:38;;;;;;;17.77;8.23;;;;;;;10.91;59.33;153979.75;1716922;83;21225;-65
2020/12/11 06:37:11;;;;;;;15.93;7.55;;;;;;;10.97;59.07;153996.80;1714768;82;21256;-64
2020/12/11 06:39:47;;;;;;;17.62;9.23;;;;;;;11.08;58.90;154024.36;1716070;83;21916;-64
2020/12/11 06:42:42;;;;;;;23.02;7.12;;;;;;;10.99;58.78;154000.77;1715086;83;21328;-64
2020/12/11 06:45:24;;;;;;;18.80;8.15;;;;;;;11.04;58.48;154015.19;1717145;83;21252;-66
2020/12/11 06:48:01;;;;;;;20.43;8.40;;;;;;;11.03;58.67;154011.22;1714671;83;21265;-68
2020/12/11 06:50:35;;;;;;;18.35;7.08;;;;;;;11.03;58.62;154011.22;1715374;83;21513;-67
2020/12/11 06:53:08;;;;;;;21.68;7.53;;;;;;;11.00;58.63;154004.69;1714706;82;21479;-69
2020/12/11 06:55:51;;;;;;;14.63;7.10;;;;;;;10.97;58.35;153995.50;1687165;83;21237;-65
2020/12/11 06:58:25;;;;;;;17.77;7.90;;;;;;;10.98;57.94;153999.42;1715538;83;22015;-66
2020/12/11 07:00:57;;;;;;;17.02;7.65;;;;;;;10.96;58.01;153994.17;1714339;83;21249;-66
2020/12/11 07:03:31;;;;;;;13.60;6.97;;;;;;;11.01;58.01;154007.31;1717394;81;21252;-66
2020/12/11 07:06:08;;;;;;;17.02;7.83;;;;;;;11.14;58.12;154040.06;1716361;83;21249;-67
2020/12/11 07:08:41;;;;;;;15.98;8.93;;;;;;;11.08;57.75;154024.36;1716224;82;21288;-66
2020/12/11 07:11:15;;;;;;;18.05;7.80;;;;;;;11.07;57.65;154021.73;1688628;82;21339;-67
2020/12/11 07:13:48;;;;;;;19.30;7.62;;;;;;;11.07;57.44;154023.02;1716659;83;21947;-66
2020/12/11 07:16:36;;;;;;;16.27;8.00;;;;;;;11.06;57.47;154019.09;1716592;82;21919;-64
2020/12/11 07:19:43;;;;;;;14.45;7.50;;;;;;;10.90;57.28;153978.47;1713096;82;21319;-63
2020/12/11 07:22:27;;;;;;;16.07;8.95;;;;;;;11.03;57.45;154011.22;1715441;83;21289;-62
2020/12/11 07:25:13;;;;;;;19.00;8.35;;;;;;;10.96;57.38;153994.17;1714607;81;22059;-63
2020/12/11 07:31:03;;;;;;;18.43;7.70;;;;;;;10.79;57.64;153948.28;1716737;82;21300;-65
2020/12/11 07:33:45;;;;;;;18.12;8.48;;;;;;;10.79;57.64;153948.28;1714755;82;22230;-65
2020/12/11 07:36:28;;;;;;;16.37;8.10;;;;;;;10.70;57.55;153923.41;1718057;82;21982;-68
2020/12/11 07:39:19;;;;;;;21.00;8.00;;;;;;;10.78;57.69;153944.38;1711480;82;21269;-66
2020/12/11 07:41:57;;;;;;;20.45;8.80;;;;;;;10.80;57.81;153952.25;1714437;82;21511;-69
2020/12/11 07:44:40;;;;;;;18.77;8.05;;;;;;;10.93;57.83;153986.34;1717300;83;22200;-67
2020/12/11 07:47:15;;;;;;;20.00;8.63;;;;;;;10.89;57.43;153975.83;1716233;82;22201;-68
2020/12/11 07:49:56;;;;;;;19.90;7.67;;;;;;;10.85;57.19;153965.33;1716332;83;21934;-65
2020/12/11 07:52:34;;;;;;;17.95;8.15;;;;;;;11.04;57.28;154013.84;1716521;82;21233;-68
2020/12/11 07:55:12;;;;;;;23.45;7.87;;;;;;;11.12;57.15;154034.81;1721049;81;21245;-66
2020/12/11 07:58:01;;;;;;;18.27;8.90;;;;;;;11.20;56.91;154057.13;1716946;82;21256;-66
2020/12/11 08:00:52;;;;;;;16.32;8.00;;;;;;;11.16;56.99;154046.66;1718318;81;21264;-68
2020/12/11 08:03:44;;;;;;;17.75;7.90;;;;;;;11.24;56.68;154067.63;1719951;81;21260;-64
2020/12/11 08:06:38;;;;;;;31.85;14.15;;;;;;;11.58;56.57;154155.53;1715129;82;21280;-63
2020/12/11 08:09:22;;;;;;;19.75;9.40;;;;;;;11.46;56.30;154124.05;1718586;81;22048;-65
2020/12/11 08:18:49;;;;;;;18.12;8.08;;;;;;;11.47;56.09;154126.63;1716031;82;21280;-65
2020/12/11 08:21:46;;;;;;;17.60;8.28;;;;;;;11.64;56.26;154172.59;1721652;82;21383;-67
2020/12/11 08:24:30;;;;;;;17.50;8.48;;;;;;;11.71;55.64;154191.00;1718798;81;21958;-66
2020/12/11 08:27:33;;;;;;;15.18;7.28;;;;;;;11.79;55.80;154211.97;1717716;80;21253;-65
2020/12/11 08:30:16;;;;;;;18.80;8.38;;;;;;;11.69;55.62;154184.45;1713388;82;21344;-66
2020/12/11 08:32:44;;;;;;;21.05;9.48;;;;;;;11.63;55.38;154168.69;1715728;83;21241;-67
2020/12/11 08:35:17;;;;;;;17.52;7.25;;;;;;;11.81;55.40;154218.52;1717360;82;21253;-67
2020/12/11 08:38:00;;;;;;;16.07;7.65;;;;;;;11.72;55.24;154194.91;1713182;82;21444;-65
2020/12/11 08:40:35;;;;;;;25.00;11.12;;;;;;;11.75;55.34;154202.80;1714657;83;22033;-66
2020/12/11 08:51:57;;;;;;;24.32;12.00;;;;;;;11.29;55.33;154079.42;1719998;81;21240;-67
2020/12/11 08:54:30;;;;;;;18.87;11.12;;;;;;;11.39;55.58;154107.00;1715281;83;21249;-68
2020/12/11 08:57:03;;;;;;;21.73;10.20;;;;;;;11.48;55.58;154130.59;1715147;83;21205;-72
2020/12/11 08:59:46;;;;;;;20.32;8.53;;;;;;;11.48;55.42;154129.25;1718310;81;21729;-70
2020/12/11 09:02:29;;;;;;;16.85;8.03;;;;;;;11.57;55.55;154154.25;1718054;83;21312;-70
2020/12/11 09:05:05;;;;;;;19.20;9.23;;;;;;;11.73;54.99;154196.25;1721335;81;21399;-70
2020/12/11 09:07:39;;;;;;;21.07;9.23;;;;;;;11.73;54.96;154197.55;1715335;83;22050;-66
2020/12/11 09:10:11;;;;;;;19.82;8.98;;;;;;;11.37;55.38;154100.41;1716190;82;21273;-70
2020/12/11 09:12:46;;;;;;;20.23;9.80;;;;;;;11.38;55.37;154103.03;1716764;82;21270;-69
2020/12/11 09:15:18;;;;;;;17.12;8.83;;;;;;;11.29;55.41;154079.42;1715911;81;21253;-71
2020/12/11 09:17:51;;;;;;;22.48;9.03;;;;;;;11.21;55.22;154059.75;1718027;83;21269;-78
2020/12/11 09:20:23;;;;;;;17.62;9.08;;;;;;;11.18;55.57;154051.88;1712009;83;21590;-70
2020/12/11 09:22:57;;;;;;;18.27;7.65;;;;;;;11.09;55.50;154026.98;1715209;82;21248;-71
2020/12/11 09:25:30;;;;;;;20.10;9.50;;;;;;;11.06;55.69;154019.09;1716243;83;21237;-80
2020/12/11 09:28:09;;;;;;;16.37;9.00;;;;;;;11.15;55.92;154042.69;1713988;82;21356;-70
2020/12/11 09:30:38;;;;;;;19.42;8.28;;;;;;;11.16;55.74;154045.31;1714871;83;21592;-70
2020/12/11 09:33:19;;;;;;;15.90;8.60;;;;;;;11.16;55.52;154045.31;1717884;83;21244;-67
2020/12/11 09:35:51;;;;;;;18.92;9.95;;;;;;;11.18;55.75;154050.58;1717282;82;21742;-72
2020/12/11 09:38:23;;;;;;;18.80;9.45;;;;;;;11.02;55.63;154008.59;1715283;83;21252;-68
2020/12/11 09:41:00;;;;;;;21.50;9.20;;;;;;;11.09;55.58;154026.98;1716824;83;21263;-75
2020/12/11 09:49:12;;;;;;;17.45;9.40;;;;;;;11.16;55.69;154045.31;1713845;83;20307;-65
2020/12/11 09:54:33;;;;;;;27.70;12.33;;;;;;;10.99;55.87;154000.77;1715225;83;22070;-66
2020/12/11 09:57:03;;;;;;;17.80;8.60;;;;;;;11.05;56.02;154016.47;1715438;82;21296;-67
2020/12/11 09:59:46;;;;;;;20.00;10.10;;;;;;;11.06;55.91;154020.39;1710622;83;21316;-69
2020/12/11 10:04:42;;;;;;;17.62;9.35;;;;;;;11.09;56.11;154026.98;1722057;83;21259;-66
2020/12/11 10:07:15;;;;;;;18.90;9.78;;;;;;;11.35;55.87;154095.14;1722021;83;21236;-65
2020/12/11 10:09:47;;;;;;;19.73;9.40;;;;;;;11.26;55.85;154071.55;1723683;83;21519;-66
2020/12/11 10:12:22;;;;;;;22.73;9.53;;;;;;;11.13;55.32;154037.44;1723461;83;21251;-64
2020/12/11 10:15:00;;;;;;;19.48;10.28;;;;;;;11.06;55.49;154020.39;1722704;83;21232;-64
2020/12/11 10:17:31;;;;;;;18.37;9.65;;;;;;;11.01;55.48;154005.97;1722542;83;21244;-69
2020/12/11 10:20:04;;;;;;;18.45;9.90;;;;;;;10.99;55.41;154002.06;1723194;83;21460;-68
2020/12/11 10:22:38;;;;;;;19.82;10.23;;;;;;;10.92;55.57;153982.37;1723590;82;21491;-65
2020/12/11 10:25:10;;;;;;;19.82;9.83;;;;;;;10.77;55.62;153943.03;1721196;83;21715;-66
2020/12/11 10:27:42;;;;;;;23.32;9.48;;;;;;;10.80;55.49;153950.91;1723678;83;21319;-64
2020/12/11 10:30:15;;;;;;;18.15;9.30;;;;;;;10.81;55.65;153954.87;1720318;83;21291;-64
2020/12/11 10:32:48;;;;;;;16.40;8.73;;;;;;;10.80;55.66;153950.91;1722789;81;21427;-65
2020/12/11 10:35:21;;;;;;;18.30;9.08;;;;;;;10.86;55.90;153967.95;1721817;83;21498;-65
2020/12/11 10:37:53;;;;;;;21.20;10.18;;;;;;;10.77;56.12;153943.03;1720808;83;21252;-65
2020/12/11 10:40:25;;;;;;;20.08;9.58;;;;;;;10.76;56.22;153939.13;1722398;83;21522;-66
2020/12/11 10:42:58;;;;;;;19.75;9.65;;;;;;;10.88;55.83;153971.87;1722344;82;21307;-64
2020/12/11 10:45:30;;;;;;;25.37;11.12;;;;;;;10.89;55.66;153975.83;1722655;81;21322;-65
2020/12/11 10:48:04;;;;;;;17.90;8.98;;;;;;;10.93;55.52;153986.34;1698480;84;21472;-65
2020/12/11 10:50:38;;;;;;;24.32;11.03;;;;;;;10.98;55.99;153999.42;1706921;83;21309;-68
2020/12/11 10:53:10;;;;;;;18.55;8.98;;;;;;;10.78;56.03;153945.66;1716403;81;21506;-65
2020/12/11 10:55:43;;;;;;;17.10;9.05;;;;;;;10.91;55.63;153981.09;1722108;83;21270;-66
2020/12/11 10:58:17;;;;;;;18.95;9.55;;;;;;;10.98;55.49;153999.42;1723405;82;21267;-75
2020/12/11 11:00:50;;;;;;;21.42;10.10;;;;;;;11.10;55.77;154030.89;1726263;81;21771;-75
2020/12/11 11:03:23;;;;;;;14.68;8.23;;;;;;;11.03;55.44;154012.56;1725736;83;21252;-70
2020/12/11 11:06:09;;;;;;;15.83;8.75;;;;;;;10.84;55.10;153961.41;1704368;84;21248;-76
2020/12/11 11:08:41;;;;;;;18.85;8.73;;;;;;;10.98;55.27;153998.14;1695352;84;21305;-74
2020/12/11 11:11:06;;;;;;;18.73;9.88;;;;;;;10.88;55.10;153971.87;1719255;83;21235;-73
2020/12/11 11:13:53;;;;;;;19.55;9.70;;;;;;;10.89;55.18;153975.83;1721394;83;21267;-71
2020/12/11 11:16:17;;;;;;;17.85;9.40;;;;;;;10.87;55.31;153970.58;1721735;83;21248;-77
2020/12/11 11:18:58;;;;;;;14.00;8.53;;;;;;;10.95;55.55;153991.55;1723502;81;21278;-74
2020/12/11 11:24:22;;;;;;;26.70;10.63;;;;;;;10.81;55.20;153954.87;1693860;81;21454;-68
2020/12/11 11:29:19;;;;;;;13.68;8.00;;;;;;;10.78;55.56;153945.66;1721524;83;22088;-67
2020/12/11 11:31:51;;;;;;;22.05;10.75;;;;;;;10.83;55.58;153958.78;1695740;82;21247;-68
2020/12/11 11:34:25;;;;;;;20.30;9.95;;;;;;;10.93;55.40;153986.34;1720797;83;21248;-69
2020/12/11 11:36:57;;;;;;;21.07;9.03;;;;;;;10.82;55.67;153956.16;1722038;83;21463;-68
2020/12/11 11:39:30;;;;;;;17.15;9.50;;;;;;;10.78;55.55;153944.38;1722557;83;21270;-69
2020/12/11 11:42:03;;;;;;;24.45;10.03;;;;;;;10.71;55.66;153927.31;1721740;83;22070;-70
2020/12/11 11:45:00;;;;;;;18.95;9.90;;;;;;;10.69;55.73;153922.06;1723285;83;21251;-71
2020/12/11 11:47:09;;;;;;;18.05;9.23;;;;;;;10.70;55.85;153924.70;1693673;83;21301;-69
2020/12/11 11:50:14;;;;;;;17.35;8.90;;;;;;;10.77;55.81;153943.03;1693463;83;21219;-71
2020/12/11 11:52:38;;;;;;;17.80;9.68;;;;;;;10.73;55.77;153931.23;1692846;83;21242;-71
2020/12/11 11:55:13;;;;;;;16.73;9.75;;;;;;;10.71;55.81;153925.98;1716652;83;21277;-71
2020/12/11 11:57:46;;;;;;;20.40;10.70;;;;;;;10.77;56.15;153943.03;1691727;84;21323;-73
2020/12/11 12:00:20;;;;;;;18.35;9.38;;;;;;;11.00;56.69;154004.69;1720190;83;22033;-67
2020/12/11 12:02:53;;;;;;;22.95;10.45;;;;;;;11.13;55.81;154037.44;1720442;83;21307;-70
2020/12/11 12:05:26;;;;;;;25.08;9.68;;;;;;;11.18;56.13;154050.58;1723347;83;21290;-70
2020/12/11 12:07:58;;;;;;;20.17;10.10;;;;;;;11.08;57.07;154024.36;1697637;83;21317;-65
2020/12/11 12:10:31;;;;;;;21.00;10.68;;;;;;;10.94;56.76;153988.92;1687871;83;21512;-67
2020/12/11 12:13:03;;;;;;;19.48;9.40;;;;;;;10.89;55.79;153975.83;1706535;83;22103;-66
2020/12/11 12:15:36;;;;;;;18.85;9.78;;;;;;;10.77;55.78;153943.03;1691715;83;21260;-66
2020/12/11 12:18:13;;;;;;;19.25;10.53;;;;;;;10.67;55.90;153916.81;1681403;84;21328;-67
2020/12/11 12:20:51;;;;;;;19.32;10.30;;;;;;;10.53;55.71;153880.11;1716863;82;21263;-66
2020/12/11 12:31:19;;;;;;;19.82;10.13;;;;;;;9.82;57.07;153692.70;1718715;81;21371;-69
2020/12/11 12:36:55;;;;;;;22.07;11.10;;;;;;;9.96;57.15;153730.69;1720629;83;21373;-70
2020/12/11 12:39:33;;;;;;;18.92;8.90;;;;;;;9.86;57.04;153704.50;1701374;83;21211;-68
2020/12/11 12:44:47;;;;;;;20.27;11.57;;;;;;;9.86;56.93;153704.50;1718020;82;21237;-68